Flinthill, Missouri
Current Conditions -  °F | °C
As of 2:26 AM on Monday 24 Nov 2014 (Local Time) from KSUS Reporting Station
Light Rain Light Rain  
Wind Chill: 37°   Ceiling: 1300
Heat Index: 45°   Visibility: 10mi
Dew Point: 41°   Wind: 18mph
Humidity: 87%   Direction: 300°WNW
Pressure: 29.29"   Gusts: 24mph
Location:  38.86°N, 90.86°W
Report Text: KSUS 240826Z AUTO 30016G21KT 10SM -RA OVC013 07/05 A2929 RMK AO2 PK WND 29026/0802 PRESRR P0001
Loading
Personal Weather Stations






























Interactive Weather Map New forecast layout! Learn more

10-Day Weather Forecast

Advertisements
Track Severe Weather on mobile